首页
METAR-TAF:

METAR-TAF

机场 :

埃夫勒, 法国

纬度: 49-01N, 经度: 001-13E, 海拔: 141米

当前天气观测

该预报发布于42分钟前的19:00 UTC
风速9节,风向南转西南
温度 7°C
湿度 76%
气压 1029 hPa
能见度10公里或以上
1500米以下无云,无积雨云

METAR: LFOE 211900Z AUTO 21009KT CAVOK 07/03 Q1029 NOSIG

时间: 20:42 (19:42 UTC)

预报

该预报发布于5小时和42分钟前的14:00 UTC
预报有效从21日的 15点(UTC)到 22日的 15点(UTC)
风速10节,风向西南
能见度10公里或以上
1500米以下无云,无积雨云
短暂存在
从 21日的 15点(UTC)到 21日的 18点(UTC)
风速10节,风向西南,有时为20节阵风
短暂存在
从 22日的 03点(UTC)到 22日的 08点(UTC)
多云层高于1000英尺
成为
从 22日的 08点(UTC)到 22日的 10点(UTC)
风速15节,风向西南,有时为25节阵风

TAF: LFOE 211400Z 2115/2215 23010KT CAVOK TEMPO 2115/2118 23010G20KT TEMPO 2203/2208 BKN010 BECMG 2208/2210 22015G25KT

超过4000个机场的气象观测和天气预报(METAR&TAF报告)。

可查询的气象台以黄色和红色小点在地图上表示。

将鼠标移到小点上方,可查看气象台名称。

然后点击查看天气观测和预报。

如需切换地图:点击带黑十字的绿色按钮放大地图;点击带横线的绿色按钮缩小地图;或者点击绿色箭头查看邻近地区的地图。


METAR-TAF: